Flight Track Log - Related Links

Times and Time Zones

All times are in EDT time to prevent confusion due to time zone crossing. See the ASQ5541 flight status page for this flight to view local times or setup timezone preferences in your user account.

Time Position Orientation Groundspeed Altitude Reporting Facility
EDT Latitude Longitude Course Direction KTS MPH feet Rate Location/Type
Fri 04:56:34 PM 33.5728 -86.7389 105° East 172 198 1,500  Level Atlanta Center
Fri 04:58:07 PM 33.5517 -86.6436 105° East 241 277 3,600 1,961 Climbing Atlanta Center
Fri 04:59:07 PM 33.5261 -86.5656 111° Southeast 246 283 6,500 2,600 Climbing Atlanta Center
Fri 05:00:07 PM 33.5008 -86.4778 109° East 258 297 8,800 1,850 Climbing Atlanta Center
Fri 05:01:07 PM 33.4611 -86.3794 116° Southeast 276 318 10,200 1,450 Climbing Atlanta Center
Fri 05:02:07 PM 33.4256 -86.2689 111° Southeast 320 368 11,700 1,450 Climbing Atlanta Center
Fri 05:03:07 PM 33.3667 -86.1731 126° Southeast 344 396 13,100 1,350 Climbing Atlanta Center
Fri 05:04:07 PM 33.3014 -86.0769 129° Southeast 357 411 14,400 1,250 Climbing Atlanta Center
Fri 05:05:07 PM 33.2364 -85.9811 129° Southeast 369 425 15,600 1,100 Climbing Atlanta Center
Fri 05:06:07 PM 33.1669 -85.8803 129° Southeast 377 434 16,600 1,000 Climbing Atlanta Center
Fri 05:07:07 PM 33.0972 -85.7819 130° Southeast 382 440 17,600 1,000 Climbing Atlanta Center
Fri 05:08:07 PM 33.0278 -85.6839 130° Southeast 387 445 18,600 700 Climbing Atlanta Center
Fri 05:09:07 PM 32.9561 -85.5786 129° Southeast 393 452 19,000 -300 Climbing Atlanta Center
Fri 05:10:07 PM 32.8822 -85.4686 129° Southeast 410 472 18,000 -950 Descending Atlanta Center
Fri 05:11:07 PM 32.9044 -85.3353 79° East 373 429 17,100 -700 Descending Atlanta Center
Fri 05:12:07 PM 32.9847 -85.2422 44° Northeast 351 404 16,600 -1,400 Descending Atlanta Center
Fri 05:13:07 PM 33.0711 -85.1567 40° Northeast 365 420 14,300 -2,100 Descending Atlanta Center
Fri 05:14:07 PM 33.1450 -85.0783 42° Northeast 371 427 12,400 -1,150 Descending Atlanta Center
Fri 05:15:07 PM 33.2122 -84.9972 45° Northeast 362 417 12,000 -700 Descending Atlanta Center
Fri 05:16:07 PM 33.2672 -84.9258 47° Northeast 305 351 11,000 -1,100 Descending Atlanta Center
Fri 05:17:07 PM 33.3406 -84.8842 25° Northeast 287 330 9,800 -1,500 Descending Atlanta Center
Fri 05:18:07 PM 33.4139 -84.8453 24° Northeast 282 325 8,000 -1,800 Descending Atlanta Center
Fri 05:19:07 PM 33.4831 -84.8033 27° Northeast 276 318 6,200 -1,400 Descending Atlanta Center
Fri 05:20:07 PM 33.5458 -84.7692 24° Northeast 260 299 5,200 -600 Descending Atlanta Center
Fri 05:21:07 PM 33.5942 -84.7222 39° Northeast 223 257 5,000 -350 Descending Atlanta Center
Fri 05:22:07 PM 33.6153 -84.6625 67° East 197 227 4,500 -812 Descending Atlanta Center
Fri 05:23:20 PM 33.6333 -84.5833 75° East 181 208 3,200 -993 Descending Atlanta TRACON
Fri 05:24:26 PM 33.6333 -84.5167 90° East 171 197 2,200 -810 Descending Atlanta TRACON
Fri 05:25:26 PM 33.6333 -84.4667 90° East 142 163 1,500 -700 Descending Atlanta TRACON
Fri 05:27:00 PM 33.6367 -84.4279 64° Northeast  Level Estimated
Fri 05:34:00 PM 33.6367 -84.4279 64° Northeast  Level Estimated

Login

Don't have an account? Register now (free) for customized features, flight alerts, and more!